createdAt,value
2022-09-21T00:01:22.602Z,2.00
2022-09-21T00:03:56.730Z,2.50
2022-09-21T00:06:25.383Z,2.25
2022-09-21T00:08:52.249Z,2.05
2022-09-21T00:11:21.971Z,1.83
2022-09-21T00:13:53.167Z,1.60
2022-09-21T00:16:20.484Z,2.05
2022-09-21T00:18:48.436Z,1.45
2022-09-21T00:21:16.347Z,1.70
2022-09-21T00:23:44.251Z,1.65
2022-09-21T00:26:12.360Z,1.58
2022-09-21T00:28:40.575Z,1.63
2022-09-21T00:31:12.349Z,1.83
2022-09-21T00:33:40.137Z,1.50
2022-09-21T00:36:09.482Z,1.92
2022-09-21T00:38:36.642Z,1.70
2022-09-21T00:41:04.795Z,1.75
2022-09-21T00:43:34.541Z,2.03
2022-09-21T00:46:10.931Z,1.95
2022-09-21T00:48:37.733Z,1.48
2022-09-21T00:51:06.946Z,1.92
2022-09-21T00:53:34.673Z,1.58
2022-09-21T00:56:03.080Z,1.60
2022-09-21T00:58:41.053Z,1.70
2022-09-21T01:01:07.910Z,1.40
2022-09-21T01:03:34.732Z,1.63
2022-09-21T01:06:01.476Z,2.00
2022-09-21T01:08:28.751Z,1.60
2022-09-21T01:11:22.838Z,1.58
2022-09-21T01:14:08.310Z,1.38
2022-09-21T01:16:56.726Z,2.10
2022-09-21T01:20:00.837Z,1.77
2022-09-21T01:23:05.298Z,1.65
2022-09-21T01:25:57.630Z,1.48
2022-09-21T01:29:01.633Z,1.75
2022-09-21T01:31:51.463Z,1.63
2022-09-21T01:35:03.532Z,2.05
2022-09-21T01:37:40.692Z,1.70
2022-09-21T01:40:25.232Z,1.83
2022-09-21T01:42:54.464Z,1.92
2022-09-21T01:45:27.542Z,1.60
2022-09-21T01:47:55.073Z,1.90
2022-09-21T01:50:22.165Z,1.80
2022-09-21T01:53:10.678Z,1.23
2022-09-21T01:55:43.000Z,1.80
2022-09-21T01:58:32.015Z,1.60
2022-09-21T02:00:58.885Z,1.80
2022-09-21T02:03:40.142Z,1.85
2022-09-21T02:06:07.374Z,1.65
2022-09-21T02:08:34.478Z,1.50
2022-09-21T02:11:03.074Z,1.52
2022-09-21T02:13:34.000Z,1.40
2022-09-21T02:16:06.588Z,1.60
2022-09-21T02:18:46.408Z,1.80
2022-09-21T02:21:25.810Z,2.08
2022-09-21T02:24:08.053Z,1.90
2022-09-21T02:26:45.740Z,1.80
2022-09-21T02:29:20.237Z,1.70
2022-09-21T02:31:46.838Z,1.88
2022-09-21T02:34:34.767Z,1.90
2022-09-21T02:37:19.705Z,1.80
2022-09-21T02:39:59.813Z,1.95
2022-09-21T02:42:36.478Z,2.00
2022-09-21T02:45:14.252Z,1.67
2022-09-21T02:47:50.622Z,1.90
2022-09-21T02:50:21.324Z,1.73
2022-09-21T02:52:48.316Z,1.98
2022-09-21T02:55:15.490Z,1.73
2022-09-21T02:57:42.709Z,1.90
2022-09-21T03:00:10.329Z,2.00
2022-09-21T03:02:42.420Z,1.70
2022-09-21T03:05:11.187Z,2.10
2022-09-21T03:07:37.979Z,2.15
2022-09-21T03:10:06.356Z,2.38
2022-09-21T03:12:33.139Z,2.10
2022-09-21T03:15:00.189Z,2.30
2022-09-21T03:17:27.753Z,2.15
2022-09-21T03:19:55.089Z,2.30
2022-09-21T03:22:23.168Z,2.20
2022-09-21T03:24:50.447Z,2.08
2022-09-21T03:27:20.611Z,2.10
2022-09-21T03:29:47.741Z,2.83
2022-09-21T03:32:14.877Z,2.33
2022-09-21T03:34:41.876Z,2.30
2022-09-21T03:37:10.907Z,2.55
2022-09-21T03:39:37.742Z,2.33
2022-09-21T03:42:04.957Z,2.58
2022-09-21T03:44:31.674Z,1.90
2022-09-21T03:46:58.417Z,2.50
2022-09-21T03:49:26.034Z,2.63
2022-09-21T03:51:52.666Z,2.65
2022-09-21T03:54:19.536Z,2.40
2022-09-21T03:56:46.349Z,2.58
2022-09-21T03:59:14.305Z,2.60
2022-09-21T04:01:41.743Z,2.55
2022-09-21T04:04:08.458Z,2.42
2022-09-21T04:06:35.429Z,2.50
2022-09-21T04:09:02.505Z,2.53
2022-09-21T04:11:30.062Z,2.30
2022-09-21T04:13:57.161Z,2.50
2022-09-21T04:16:27.609Z,2.40
2022-09-21T04:18:54.650Z,2.45
2022-09-21T04:21:22.431Z,2.40
2022-09-21T04:23:49.857Z,2.35
2022-09-21T04:26:28.278Z,2.65
2022-09-21T04:28:55.996Z,2.30
2022-09-21T04:31:24.164Z,2.47
2022-09-21T04:33:52.411Z,2.00
2022-09-21T04:36:20.297Z,2.28
2022-09-21T04:38:47.474Z,2.33
2022-09-21T04:41:15.267Z,2.58
2022-09-21T04:43:43.475Z,2.38
2022-09-21T04:46:12.763Z,2.45
2022-09-21T04:48:40.326Z,2.20
2022-09-21T04:51:08.015Z,2.25
2022-09-21T04:53:37.135Z,2.40
2022-09-21T04:56:05.774Z,2.30
2022-09-21T04:58:33.134Z,2.20
2022-09-21T05:01:00.045Z,2.50
2022-09-21T05:03:27.166Z,4.80
2022-09-21T05:05:56.462Z,3.80
2022-09-21T05:08:43.631Z,3.15
2022-09-21T05:11:13.653Z,2.78
2022-09-21T05:13:40.572Z,2.15
2022-09-21T05:16:07.883Z,2.35
2022-09-21T05:18:34.805Z,2.72
2022-09-21T05:21:02.980Z,2.50
2022-09-21T05:23:30.998Z,2.30
2022-09-21T05:25:58.465Z,2.83
2022-09-21T05:28:26.096Z,2.75
2022-09-21T05:31:17.746Z,2.90
2022-09-21T05:33:51.065Z,2.40
2022-09-21T05:36:45.623Z,2.80
2022-09-21T05:39:12.722Z,2.63
2022-09-21T05:41:39.907Z,2.53
2022-09-21T05:44:07.525Z,2.60
2022-09-21T05:46:40.311Z,2.88
2022-09-21T05:49:18.589Z,2.75
2022-09-21T05:51:55.105Z,2.50
2022-09-21T05:54:50.085Z,3.10
2022-09-21T05:57:57.222Z,2.42
2022-09-21T06:00:24.267Z,2.63
2022-09-21T06:02:57.930Z,2.78
2022-09-21T06:05:24.918Z,2.63
2022-09-21T06:07:51.618Z,2.60
2022-09-21T06:10:18.347Z,3.40
2022-09-21T06:12:45.190Z,2.67
2022-09-21T06:15:13.835Z,2.90
2022-09-21T06:17:41.010Z,2.50
2022-09-21T06:20:08.193Z,2.63
2022-09-21T06:22:35.600Z,2.53
2022-09-21T06:25:02.338Z,2.85
2022-09-21T06:27:29.443Z,2.90
2022-09-21T06:29:56.268Z,2.85
2022-09-21T06:32:23.128Z,2.80
2022-09-21T06:34:49.983Z,2.70
2022-09-21T06:37:17.102Z,3.10
2022-09-21T06:39:43.807Z,3.00
2022-09-21T06:42:10.610Z,2.45
2022-09-21T06:44:37.438Z,2.70
2022-09-21T06:47:04.331Z,2.72
2022-09-21T06:49:31.031Z,2.80
2022-09-21T06:51:58.161Z,2.70
2022-09-21T06:54:25.296Z,2.20
2022-09-21T06:56:52.007Z,2.55
2022-09-21T06:59:18.735Z,2.00
2022-09-21T07:01:45.481Z,2.20
2022-09-21T07:04:12.336Z,1.77
2022-09-21T07:06:39.033Z,2.05
2022-09-21T07:11:52.467Z,2.05
2022-09-21T07:14:19.365Z,1.63
2022-09-21T07:16:46.439Z,1.80
2022-09-21T07:19:13.258Z,2.05
2022-09-21T07:21:40.164Z,2.03
2022-09-21T07:24:11.203Z,1.60
2022-09-21T07:26:39.052Z,1.40
2022-09-21T07:29:05.918Z,1.38
2022-09-21T07:31:32.738Z,1.38
2022-09-21T07:33:59.574Z,1.50
2022-09-21T07:36:26.366Z,1.48
2022-09-21T07:38:53.975Z,1.50
2022-09-21T07:41:21.152Z,1.50
2022-09-21T07:43:47.984Z,1.20
2022-09-21T07:46:15.277Z,1.63
2022-09-21T07:48:43.599Z,1.40
2022-09-21T07:51:13.554Z,1.30
2022-09-21T07:53:42.841Z,1.30
2022-09-21T07:56:15.146Z,1.40
2022-09-21T07:59:00.388Z,1.15
2022-09-21T08:01:28.435Z,0.93
2022-09-21T08:03:56.828Z,0.80
2022-09-21T08:06:25.392Z,1.27
2022-09-21T08:08:56.733Z,1.80
2022-09-21T08:11:25.894Z,1.20
2022-09-21T08:13:54.535Z,1.00
2022-09-21T08:16:21.490Z,1.30
2022-09-21T08:18:48.286Z,1.40
2022-09-21T08:21:14.992Z,1.20
2022-09-21T08:23:42.856Z,1.52
2022-09-21T08:26:14.937Z,1.48
2022-09-21T08:28:41.574Z,1.20
2022-09-21T08:31:09.908Z,1.25
2022-09-21T08:33:36.706Z,1.40
2022-09-21T08:36:04.283Z,1.30
2022-09-21T08:38:35.704Z,1.10
2022-09-21T08:41:10.334Z,1.42
2022-09-21T08:43:43.342Z,1.27
2022-09-21T08:46:13.975Z,1.42
2022-09-21T08:48:46.188Z,1.40
2022-09-21T08:51:17.745Z,1.50
2022-09-21T08:53:46.798Z,1.98
2022-09-21T08:56:14.560Z,1.33
2022-09-21T08:58:42.122Z,1.20
2022-09-21T09:01:21.073Z,1.70
2022-09-21T09:03:57.196Z,1.83
2022-09-21T09:06:41.857Z,2.22
2022-09-21T09:09:40.021Z,2.40
2022-09-21T09:12:27.800Z,2.05
2022-09-21T09:15:17.716Z,1.73
2022-09-21T09:18:09.757Z,1.83
2022-09-21T09:21:08.079Z,1.80
2022-09-21T09:23:41.847Z,2.83
2022-09-21T09:26:15.664Z,1.87
2022-09-21T09:28:54.043Z,2.40
2022-09-21T09:31:22.928Z,1.95
2022-09-21T09:34:00.362Z,2.20
2022-09-21T09:36:56.622Z,1.65
2022-09-21T09:39:19.918Z,1.92
2022-09-21T09:41:55.514Z,2.22
2022-09-21T09:44:54.526Z,2.30
2022-09-21T09:47:48.837Z,2.10
2022-09-21T09:50:28.506Z,1.50
2022-09-21T09:53:04.257Z,1.52
2022-09-21T09:55:43.719Z,1.27
2022-09-21T09:58:20.731Z,1.15
2022-09-21T10:00:52.049Z,1.33
2022-09-21T10:03:21.588Z,1.45
2022-09-21T10:05:48.480Z,1.50
2022-09-21T10:08:36.998Z,1.38
2022-09-21T10:11:04.242Z,1.40
2022-09-21T10:13:34.255Z,1.40
2022-09-21T10:16:12.870Z,1.30
2022-09-21T10:18:44.530Z,1.23
2022-09-21T10:21:28.099Z,1.00
2022-09-21T10:24:18.942Z,1.70
2022-09-21T10:26:56.046Z,1.52
2022-09-21T10:29:22.780Z,1.52
2022-09-21T10:32:16.821Z,1.38
2022-09-21T10:35:00.813Z,1.02
2022-09-21T10:37:29.898Z,1.45
2022-09-21T10:39:57.192Z,1.25
2022-09-21T10:42:24.377Z,1.42
2022-09-21T10:44:53.411Z,1.10
2022-09-21T10:47:36.383Z,1.30
2022-09-21T10:50:06.764Z,1.00
2022-09-21T10:52:35.881Z,1.10
2022-09-21T10:55:03.066Z,1.20
2022-09-21T10:57:32.569Z,1.05
2022-09-21T11:00:13.064Z,1.13
2022-09-21T11:02:42.955Z,0.93
2022-09-21T11:05:13.098Z,1.17
2022-09-21T11:07:52.297Z,0.95
2022-09-21T11:10:24.384Z,1.13
2022-09-21T11:13:05.770Z,1.30
2022-09-21T11:15:52.782Z,1.00
2022-09-21T11:18:30.949Z,1.00
2022-09-21T11:21:11.100Z,1.02
2022-09-21T11:24:23.843Z,1.00
2022-09-21T11:26:56.417Z,0.75
2022-09-21T11:29:37.207Z,0.70
2022-09-21T11:32:45.011Z,0.60
2022-09-21T11:35:41.302Z,1.10
2022-09-21T11:38:34.306Z,1.10
2022-09-21T11:41:40.109Z,1.00
2022-09-21T11:44:24.898Z,0.90
2022-09-21T11:47:13.467Z,0.98
2022-09-21T11:49:44.063Z,0.85
2022-09-21T11:52:49.001Z,0.77
2022-09-21T11:55:37.361Z,0.70
2022-09-21T11:58:32.184Z,0.95
2022-09-21T12:01:17.340Z,0.70
2022-09-21T12:04:15.868Z,0.82
2022-09-21T12:07:01.474Z,0.95
2022-09-21T12:10:08.842Z,0.98
2022-09-21T12:13:02.687Z,0.90
2022-09-21T12:15:56.072Z,0.70
2022-09-21T12:18:47.997Z,0.70
2022-09-21T12:21:27.520Z,1.00
2022-09-21T12:24:03.131Z,1.02
2022-09-21T12:26:50.303Z,1.00
2022-09-21T12:29:25.746Z,1.17
2022-09-21T12:32:15.307Z,1.33
2022-09-21T12:34:46.374Z,1.23
2022-09-21T12:37:26.902Z,1.38
2022-09-21T12:40:19.431Z,1.25
2022-09-21T12:42:57.848Z,1.30
2022-09-21T12:45:30.105Z,0.82
2022-09-21T12:48:13.402Z,0.90
2022-09-21T12:50:55.029Z,1.38
2022-09-21T12:53:25.617Z,1.00
2022-09-21T12:56:09.519Z,1.25
2022-09-21T12:58:44.161Z,1.08
2022-09-21T13:01:29.273Z,1.00
2022-09-21T13:04:34.421Z,1.30
2022-09-21T13:07:18.546Z,0.90
2022-09-21T13:09:46.431Z,1.08
2022-09-21T13:12:30.499Z,1.08
2022-09-21T13:15:03.886Z,0.98
2022-09-21T13:17:32.635Z,0.75
2022-09-21T13:20:03.958Z,0.80
2022-09-21T13:22:33.296Z,0.80
2022-09-21T13:25:03.492Z,0.77
2022-09-21T13:28:01.451Z,0.60
2022-09-21T13:30:39.048Z,0.60
2022-09-21T13:33:25.667Z,0.90
2022-09-21T13:36:02.266Z,0.88
2022-09-21T13:38:37.435Z,0.93
2022-09-21T13:41:35.527Z,0.90
2022-09-21T13:44:46.174Z,0.80
2022-09-21T13:47:14.218Z,0.80
2022-09-21T13:49:44.958Z,0.93
2022-09-21T13:52:15.775Z,0.70
2022-09-21T13:54:45.502Z,0.77
2022-09-21T13:57:27.929Z,0.63
2022-09-21T14:00:17.642Z,0.80
2022-09-21T14:03:07.158Z,0.60
2022-09-21T14:05:43.305Z,0.50
2022-09-21T14:08:16.008Z,0.90
2022-09-21T14:11:22.356Z,0.70
2022-09-21T14:14:03.476Z,0.60
2022-09-21T14:16:37.379Z,0.63
2022-09-21T14:19:26.911Z,0.70
2022-09-21T14:22:06.392Z,0.57
2022-09-21T14:24:38.963Z,0.50
2022-09-21T14:27:33.417Z,0.50
2022-09-21T14:30:23.055Z,0.68
2022-09-21T14:33:20.275Z,0.47
2022-09-21T14:35:48.778Z,0.70
2022-09-21T14:38:25.908Z,0.45
2022-09-21T14:40:56.919Z,0.60
2022-09-21T14:43:36.047Z,0.40
2022-09-21T14:46:32.155Z,0.40
2022-09-21T14:49:11.013Z,0.88
2022-09-21T14:51:55.675Z,0.70
2022-09-21T14:54:57.201Z,1.00
2022-09-21T14:57:37.608Z,0.70
2022-09-21T15:00:14.531Z,0.60
2022-09-21T15:02:43.641Z,0.60
2022-09-21T15:05:16.584Z,0.40
2022-09-21T15:08:14.113Z,0.57
2022-09-21T15:11:11.891Z,0.50
2022-09-21T15:13:49.565Z,1.00
2022-09-21T15:16:28.729Z,0.52
2022-09-21T15:19:13.251Z,0.90
2022-09-21T15:21:45.748Z,0.82
2022-09-21T15:24:26.625Z,0.70
2022-09-21T15:27:01.794Z,0.85
2022-09-21T15:29:31.551Z,0.65
2022-09-21T15:31:59.695Z,0.73
2022-09-21T15:34:27.074Z,0.60
2022-09-21T15:36:53.780Z,0.70
2022-09-21T15:39:31.561Z,0.70
2022-09-21T15:42:17.758Z,1.20
2022-09-21T15:44:48.439Z,2.70
2022-09-21T15:47:18.113Z,1.48
2022-09-21T15:49:45.564Z,1.17
2022-09-21T15:52:37.876Z,0.65
2022-09-21T15:55:22.117Z,0.82
2022-09-21T15:57:54.391Z,0.90
2022-09-21T16:00:24.591Z,0.90
2022-09-21T16:03:16.338Z,1.10
2022-09-21T16:05:46.023Z,0.70
2022-09-21T16:08:28.030Z,0.60
2022-09-21T16:11:14.340Z,0.50
2022-09-21T16:14:03.726Z,0.82
2022-09-21T16:16:30.630Z,0.73
2022-09-21T16:19:00.101Z,0.82
2022-09-21T16:21:34.782Z,0.77
2022-09-21T16:24:12.353Z,0.60
2022-09-21T16:26:41.159Z,0.77
2022-09-21T16:29:08.553Z,0.63
2022-09-21T16:31:37.182Z,0.50
2022-09-21T16:34:26.106Z,1.13
2022-09-21T16:36:53.949Z,0.68
2022-09-21T16:39:22.459Z,1.08
2022-09-21T16:41:55.330Z,0.85
2022-09-21T16:44:25.605Z,0.90
2022-09-21T16:47:02.690Z,1.13
2022-09-21T16:49:34.948Z,0.70
2022-09-21T16:52:02.070Z,1.00
2022-09-21T16:54:29.070Z,0.70
2022-09-21T16:56:57.840Z,0.90
2022-09-21T16:59:25.191Z,1.00
2022-09-21T17:01:56.502Z,0.88
2022-09-21T17:04:26.928Z,5.82
2022-09-21T17:06:54.141Z,1.40
2022-09-21T17:09:25.752Z,1.13
2022-09-21T17:11:56.288Z,4.60
2022-09-21T17:14:24.015Z,2.47
2022-09-21T17:16:52.997Z,2.08
2022-09-21T17:19:19.981Z,1.50
2022-09-21T17:21:47.579Z,5.82
2022-09-21T17:24:32.842Z,7.22
2022-09-21T17:27:02.857Z,9.20
2022-09-21T17:29:30.901Z,10.25
2022-09-21T17:31:58.528Z,5.20
2022-09-21T17:34:27.553Z,2.92
2022-09-21T17:36:55.296Z,2.30
2022-09-21T17:39:23.868Z,3.00
2022-09-21T17:42:02.770Z,3.08
2022-09-21T17:44:55.071Z,5.97
2022-09-21T17:47:29.352Z,15.23
2022-09-21T17:50:27.053Z,19.70
2022-09-21T17:53:13.317Z,17.73
2022-09-21T17:55:48.367Z,13.90
2022-09-21T17:58:34.411Z,6.68
2022-09-21T18:01:09.811Z,6.20
2022-09-21T18:03:41.080Z,4.80
2022-09-21T18:06:09.643Z,4.13
2022-09-21T18:08:38.634Z,4.75
2022-09-21T18:11:33.095Z,4.85
2022-09-21T18:14:13.302Z,3.65
2022-09-21T18:17:01.492Z,4.05
2022-09-21T18:20:03.504Z,3.50
2022-09-21T18:22:33.587Z,5.55
2022-09-21T18:25:03.256Z,3.85
2022-09-21T18:27:30.879Z,5.70
2022-09-21T18:29:58.382Z,4.30
2022-09-21T18:32:36.765Z,4.20
2022-09-21T18:35:24.614Z,2.60
2022-09-21T18:38:20.851Z,2.20
2022-09-21T18:41:02.326Z,2.42
2022-09-21T18:43:47.601Z,2.28
2022-09-21T18:49:02.681Z,1.92
2022-09-21T18:51:57.508Z,1.73
2022-09-21T18:54:27.693Z,1.63
2022-09-21T18:56:55.621Z,1.42
2022-09-21T18:59:22.751Z,2.47
2022-09-21T19:01:50.708Z,3.95
2022-09-21T19:04:18.669Z,4.68
2022-09-21T19:06:53.850Z,4.95
2022-09-21T19:10:15.472Z,2.53
2022-09-21T19:12:56.886Z,1.40
2022-09-21T19:16:01.736Z,1.23
2022-09-21T19:18:34.968Z,0.97
2022-09-21T19:21:31.536Z,0.70
2022-09-21T19:24:20.254Z,0.93
2022-09-21T19:26:57.802Z,1.17
2022-09-21T19:29:39.731Z,1.23
2022-09-21T19:32:16.541Z,3.30
2022-09-21T19:34:43.820Z,1.70
2022-09-21T19:37:11.178Z,2.33
2022-09-21T19:39:38.506Z,2.90
2022-09-21T19:42:30.364Z,2.30
2022-09-21T19:45:15.499Z,2.13
2022-09-21T19:47:53.525Z,1.60
2022-09-21T19:50:47.678Z,1.00
2022-09-21T19:53:33.931Z,1.50
2022-09-21T19:56:20.818Z,1.38
2022-09-21T19:59:06.259Z,1.40
2022-09-21T20:01:35.691Z,1.40
2022-09-21T20:04:02.742Z,1.10
2022-09-21T20:06:44.233Z,1.10
2022-09-21T20:09:40.089Z,1.15
2022-09-21T20:12:26.672Z,1.45
2022-09-21T20:15:16.024Z,1.10
2022-09-21T20:17:47.907Z,1.35
2022-09-21T20:20:26.252Z,1.10
2022-09-21T20:22:53.981Z,1.40
2022-09-21T20:25:26.402Z,1.20
2022-09-21T20:27:56.868Z,1.15
2022-09-21T20:30:26.481Z,1.05
2022-09-21T20:33:09.317Z,1.60
2022-09-21T20:35:36.146Z,1.23
2022-09-21T20:38:03.295Z,0.98
2022-09-21T20:40:31.970Z,0.90
2022-09-21T20:43:00.941Z,1.10
2022-09-21T20:45:28.443Z,1.60
2022-09-21T20:47:57.146Z,1.45
2022-09-21T20:50:26.632Z,1.20
2022-09-21T20:52:53.302Z,1.20
2022-09-21T20:55:20.417Z,1.20
2022-09-21T20:57:47.177Z,0.95
2022-09-21T21:00:16.126Z,1.05
2022-09-21T21:02:42.986Z,1.20
2022-09-21T21:05:11.199Z,1.27
2022-09-21T21:07:38.151Z,1.05
2022-09-21T21:10:05.152Z,1.10
2022-09-21T21:12:32.365Z,0.98
2022-09-21T21:14:59.315Z,1.10
2022-09-21T21:17:26.121Z,0.90
2022-09-21T21:19:53.279Z,1.30
2022-09-21T21:22:19.935Z,1.05
2022-09-21T21:24:47.178Z,1.00
2022-09-21T21:27:20.126Z,0.95
2022-09-21T21:29:50.041Z,1.20
2022-09-21T21:32:17.458Z,1.00
2022-09-21T21:34:44.642Z,1.15
2022-09-21T21:37:12.731Z,1.35
2022-09-21T21:39:39.900Z,1.05
2022-09-21T21:42:06.917Z,1.05
2022-09-21T21:44:33.638Z,1.00
2022-09-21T21:47:15.394Z,1.10
2022-09-21T21:49:47.219Z,0.98
2022-09-21T21:52:14.458Z,1.10
2022-09-21T21:54:41.423Z,1.42
2022-09-21T21:57:08.972Z,1.20
2022-09-21T21:59:36.243Z,1.20
2022-09-21T22:02:02.991Z,0.90
2022-09-21T22:04:30.671Z,1.20
2022-09-21T22:06:57.630Z,1.27
2022-09-21T22:09:24.315Z,1.15
2022-09-21T22:11:51.027Z,1.05
2022-09-21T22:14:18.472Z,1.30
2022-09-21T22:16:45.314Z,1.00
2022-09-21T22:19:12.292Z,0.90
2022-09-21T22:21:41.713Z,1.00
2022-09-21T22:24:09.663Z,1.13
2022-09-21T22:26:39.230Z,1.08
2022-09-21T22:29:07.337Z,1.10
2022-09-21T22:31:36.779Z,1.10
2022-09-21T22:34:04.166Z,1.20
2022-09-21T22:36:33.700Z,0.93
2022-09-21T22:39:01.190Z,0.90
2022-09-21T22:41:30.009Z,1.27
2022-09-21T22:43:58.032Z,1.20
2022-09-21T22:46:26.680Z,1.00
2022-09-21T22:48:53.405Z,1.00
2022-09-21T22:51:21.380Z,1.27
2022-09-21T22:53:48.966Z,1.30
2022-09-21T22:56:18.029Z,1.33
2022-09-21T22:58:46.967Z,1.20
2022-09-21T23:01:18.153Z,1.40
2022-09-21T23:03:49.334Z,1.27
2022-09-21T23:06:17.912Z,1.00
2022-09-21T23:08:51.292Z,1.38
2022-09-21T23:11:29.443Z,1.00
2022-09-21T23:13:57.330Z,1.30
2022-09-21T23:16:25.308Z,1.10
2022-09-21T23:18:52.098Z,1.15
2022-09-21T23:21:21.106Z,1.38
2022-09-21T23:23:48.029Z,1.30
2022-09-21T23:26:22.728Z,1.10
2022-09-21T23:28:55.538Z,1.40
2022-09-21T23:31:23.105Z,1.40
2022-09-21T23:33:52.245Z,1.10
2022-09-21T23:36:21.737Z,1.27
2022-09-21T23:38:49.120Z,1.20
2022-09-21T23:41:18.594Z,1.17
2022-09-21T23:43:46.339Z,1.25
2022-09-21T23:46:16.116Z,1.17
2022-09-21T23:48:43.507Z,1.25
2022-09-21T23:51:10.956Z,1.30
2022-09-21T23:53:37.960Z,1.30
2022-09-21T23:56:05.865Z,1.20
2022-09-21T23:58:32.537Z,1.10
